Time;durP1;ratioP1;P1;durP2;ratioP2;P2;SDS_P1;SDS_P2;PMS_P1;PMS_P2;Temp;Humidity;BMP_temperature;BMP_pressure;BME280_temperature;BME280_humidity;BME280_pressure;Samples;Min_cycle;Max_cycle;Signal;HPM_P1;HPM_P2
2022/10/18 00:01:11;;;;;;;170.30;53.20;;;;;;;;;;5052800;28;20241;-90
2022/10/18 00:03:40;;;;;;;109.70;47.47;;;;;;;;;;5035708;28;20184;-89
2022/10/18 00:06:07;;;;;;;114.07;49.40;;;;;;;;;;5030852;28;20195;-81
2022/10/18 00:08:34;;;;;;;143.73;49.53;;;;;;;;;;5018227;28;20195;-81
2022/10/18 00:11:00;;;;;;;109.50;47.87;;;;;;;;;;5017681;28;20199;-82
2022/10/18 00:13:26;;;;;;;151.23;49.23;;;;;;;;;;5035732;28;20192;-90
2022/10/18 00:15:57;;;;;;;136.07;49.93;;;;;;;;;;5037673;28;20212;-89
2022/10/18 00:18:23;;;;;;;103.07;45.40;;;;;;;;;;5036537;28;20188;-79
2022/10/18 00:21:15;;;;;;;122.23;47.77;;;;;;;;;;5037935;28;20183;-80
2022/10/18 00:23:42;;;;;;;137.03;47.10;;;;;;;;;;5034743;28;20203;-80
2022/10/18 00:26:10;;;;;;;162.70;50.53;;;;;;;;;;5056182;28;20180;-79
2022/10/18 00:28:37;;;;;;;104.47;44.30;;;;;;;;;;5035008;28;20188;-79
2022/10/18 00:31:12;;;;;;;167.33;52.03;;;;;;;;;;5038746;28;20191;-89
2022/10/18 00:33:39;;;;;;;215.40;52.97;;;;;;;;;;5038925;28;20237;-90
2022/10/18 00:36:05;;;;;;;168.80;49.17;;;;;;;;;;5038111;28;20246;-90
2022/10/18 00:38:31;;;;;;;218.70;53.50;;;;;;;;;;5038411;28;20234;-90
2022/10/18 00:40:57;;;;;;;124.77;45.13;;;;;;;;;;5054233;28;20176;-89
2022/10/18 00:43:23;;;;;;;149.47;47.23;;;;;;;;;;5038585;28;20184;-90
2022/10/18 00:45:49;;;;;;;115.63;46.60;;;;;;;;;;5022638;28;20196;-89
2022/10/18 00:48:15;;;;;;;97.00;41.63;;;;;;;;;;5022424;28;20251;-89
2022/10/18 00:50:42;;;;;;;191.80;49.27;;;;;;;;;;5007657;28;20188;-89
2022/10/18 00:53:12;;;;;;;106.30;43.93;;;;;;;;;;5039279;28;20187;-89
2022/10/18 00:55:38;;;;;;;158.83;49.33;;;;;;;;;;5033546;28;20211;-82
2022/10/18 00:58:05;;;;;;;70.90;39.33;;;;;;;;;;5037814;28;20180;-82
2022/10/18 01:00:31;;;;;;;102.23;43.43;;;;;;;;;;5055921;28;20186;-82
2022/10/18 01:02:58;;;;;;;93.10;43.70;;;;;;;;;;5018661;28;20200;-90
2022/10/18 01:05:25;;;;;;;118.80;48.40;;;;;;;;;;5018781;28;20234;-83
2022/10/18 01:08:00;;;;;;;133.80;49.03;;;;;;;;;;5025963;28;20184;-83
2022/10/18 01:10:30;;;;;;;124.70;47.53;;;;;;;;;;5039767;28;20179;-83
2022/10/18 01:13:02;;;;;;;108.07;45.50;;;;;;;;;;5055301;28;20176;-83
2022/10/18 01:15:34;;;;;;;108.30;47.53;;;;;;;;;;5037487;28;20208;-83
2022/10/18 01:18:03;;;;;;;91.67;43.13;;;;;;;;;;5037363;28;20270;-83
2022/10/18 01:20:54;;;;;;;96.47;46.17;;;;;;;;;;5055622;28;20176;-90
2022/10/18 01:23:39;;;;;;;112.47;48.20;;;;;;;;;;5035358;28;20497;-80
2022/10/18 01:26:29;;;;;;;143.57;50.97;;;;;;;;;;5052128;28;20184;-79
2022/10/18 01:29:07;;;;;;;115.90;48.27;;;;;;;;;;5054863;28;20209;-79
2022/10/18 01:32:06;;;;;;;137.53;50.77;;;;;;;;;;5037512;28;20192;-79
2022/10/18 01:34:35;;;;;;;105.20;44.33;;;;;;;;;;5007187;28;20192;-83
2022/10/18 01:37:02;;;;;;;109.13;46.17;;;;;;;;;;5055055;28;20212;-80
2022/10/18 01:39:30;;;;;;;97.13;45.20;;;;;;;;;;5037654;28;20227;-79
2022/10/18 01:41:58;;;;;;;113.93;48.40;;;;;;;;;;5037502;28;20183;-79
2022/10/18 01:44:25;;;;;;;93.77;43.67;;;;;;;;;;5054997;28;20189;-80
2022/10/18 01:46:52;;;;;;;110.07;45.73;;;;;;;;;;5037029;28;20249;-79
2022/10/18 01:49:18;;;;;;;105.93;46.60;;;;;;;;;;5035476;28;20188;-79
2022/10/18 01:51:44;;;;;;;84.37;42.17;;;;;;;;;;5020949;28;20195;-79
2022/10/18 01:54:12;;;;;;;95.97;46.33;;;;;;;;;;5017904;28;20280;-82
2022/10/18 01:56:44;;;;;;;103.97;46.13;;;;;;;;;;5034668;28;20208;-82
2022/10/18 01:59:19;;;;;;;97.17;42.73;;;;;;;;;;5037069;28;20185;-83
2022/10/18 02:01:55;;;;;;;114.57;48.60;;;;;;;;;;5037134;28;20207;-83
2022/10/18 02:04:40;;;;;;;107.60;48.00;;;;;;;;;;5037657;28;20190;-80
2022/10/18 02:07:14;;;;;;;109.00;48.67;;;;;;;;;;5036790;28;20278;-79
2022/10/18 02:09:45;;;;;;;129.40;53.13;;;;;;;;;;5030131;28;20187;-83
2022/10/18 02:12:13;;;;;;;126.20;51.07;;;;;;;;;;5054758;28;20202;-84
2022/10/18 02:14:40;;;;;;;128.00;52.20;;;;;;;;;;5036857;28;20184;-80
2022/10/18 02:17:08;;;;;;;114.50;48.03;;;;;;;;;;5035604;28;20215;-79
2022/10/18 02:19:38;;;;;;;118.93;50.43;;;;;;;;;;5053908;28;20207;-82
2022/10/18 02:22:05;;;;;;;125.43;50.47;;;;;;;;;;5053475;28;20200;-82
2022/10/18 02:24:37;;;;;;;125.97;51.13;;;;;;;;;;5043839;28;20218;-81
2022/10/18 02:27:03;;;;;;;118.27;50.70;;;;;;;;;;5036894;28;20253;-83
2022/10/18 02:29:30;;;;;;;142.30;52.70;;;;;;;;;;5027145;28;20192;-83
2022/10/18 02:32:04;;;;;;;132.57;50.40;;;;;;;;;;5036953;28;20179;-83
2022/10/18 02:34:34;;;;;;;148.43;53.60;;;;;;;;;;5035395;28;20191;-82
2022/10/18 02:37:00;;;;;;;140.00;51.43;;;;;;;;;;5035825;28;20216;-82
2022/10/18 02:39:29;;;;;;;155.50;52.50;;;;;;;;;;5032510;28;20232;-82
2022/10/18 02:41:55;;;;;;;110.13;47.10;;;;;;;;;;5033446;28;20176;-82
2022/10/18 02:44:21;;;;;;;202.50;54.03;;;;;;;;;;5033325;28;20276;-80
2022/10/18 02:46:47;;;;;;;123.37;48.07;;;;;;;;;;5016837;28;20189;-79
2022/10/18 02:49:13;;;;;;;104.87;47.90;;;;;;;;;;5032707;28;20215;-80
2022/10/18 02:51:39;;;;;;;112.00;46.37;;;;;;;;;;5016820;28;20258;-80
2022/10/18 02:54:07;;;;;;;109.27;46.43;;;;;;;;;;5022955;28;20280;-79
2022/10/18 02:56:33;;;;;;;99.37;45.13;;;;;;;;;;5003322;28;20272;-80
2022/10/18 02:58:59;;;;;;;124.37;47.77;;;;;;;;;;5032375;28;20184;-90
2022/10/18 03:01:25;;;;;;;97.43;43.83;;;;;;;;;;5032752;28;20192;-90
2022/10/18 03:03:51;;;;;;;112.27;45.60;;;;;;;;;;5032794;28;20188;-80
2022/10/18 03:06:17;;;;;;;95.90;44.20;;;;;;;;;;5033255;28;20185;-79
2022/10/18 03:08:43;;;;;;;87.37;43.43;;;;;;;;;;5015397;28;20199;-79
2022/10/18 03:11:09;;;;;;;91.87;43.30;;;;;;;;;;5016189;28;20193;-80
2022/10/18 03:13:35;;;;;;;89.73;42.20;;;;;;;;;;5015225;28;20193;-79
2022/10/18 03:16:01;;;;;;;90.43;41.77;;;;;;;;;;5031782;28;20204;-81
2022/10/18 03:18:27;;;;;;;92.20;44.03;;;;;;;;;;5014963;28;20196;-81
2022/10/18 03:20:53;;;;;;;103.70;42.80;;;;;;;;;;5031364;28;20184;-81
2022/10/18 03:23:19;;;;;;;88.90;40.67;;;;;;;;;;5014921;28;20200;-82
2022/10/18 03:25:45;;;;;;;96.50;42.60;;;;;;;;;;5032102;28;20199;-83
2022/10/18 03:28:11;;;;;;;85.47;41.90;;;;;;;;;;5018156;28;20187;-83
2022/10/18 03:30:37;;;;;;;72.10;40.27;;;;;;;;;;5014408;28;20246;-83
2022/10/18 03:33:04;;;;;;;72.73;41.03;;;;;;;;;;5031595;28;20185;-82
2022/10/18 03:35:30;;;;;;;90.30;41.80;;;;;;;;;;5032108;28;20199;-82
2022/10/18 03:37:56;;;;;;;80.17;39.07;;;;;;;;;;5033903;28;20221;-81
2022/10/18 03:40:22;;;;;;;89.27;41.67;;;;;;;;;;5004697;28;20294;-82
2022/10/18 03:42:48;;;;;;;81.70;39.33;;;;;;;;;;5052268;28;20208;-82
2022/10/18 03:45:14;;;;;;;66.60;36.47;;;;;;;;;;5034677;28;20188;-82
2022/10/18 03:47:40;;;;;;;73.57;38.47;;;;;;;;;;5019273;28;20186;-81
2022/10/18 03:50:07;;;;;;;68.97;37.83;;;;;;;;;;5037043;28;20219;-90
2022/10/18 03:52:33;;;;;;;75.13;39.57;;;;;;;;;;5022825;28;20184;-90
2022/10/18 03:54:59;;;;;;;82.43;39.23;;;;;;;;;;5038075;28;20180;-90
2022/10/18 03:57:25;;;;;;;76.93;37.90;;;;;;;;;;5011408;28;20223;-90
2022/10/18 03:59:51;;;;;;;67.03;37.50;;;;;;;;;;5056105;28;20175;-90
2022/10/18 04:02:17;;;;;;;78.17;38.90;;;;;;;;;;5046240;28;20237;-90
2022/10/18 04:04:43;;;;;;;71.97;37.47;;;;;;;;;;5047686;28;20184;-89
2022/10/18 04:07:09;;;;;;;72.30;38.00;;;;;;;;;;5046834;28;20180;-81
2022/10/18 04:09:35;;;;;;;63.23;36.17;;;;;;;;;;5026668;28;20184;-81
2022/10/18 04:12:01;;;;;;;72.00;36.83;;;;;;;;;;5046237;28;20184;-81
2022/10/18 04:14:27;;;;;;;70.13;37.17;;;;;;;;;;5029009;28;20192;-83
2022/10/18 04:16:53;;;;;;;87.13;38.53;;;;;;;;;;5030846;28;20227;-83
2022/10/18 04:19:19;;;;;;;89.10;37.50;;;;;;;;;;5029950;28;20222;-80
2022/10/18 04:21:45;;;;;;;69.37;35.50;;;;;;;;;;5048168;28;20270;-79
2022/10/18 04:24:11;;;;;;;63.37;35.17;;;;;;;;;;5042102;28;20270;-90
2022/10/18 04:26:37;;;;;;;61.43;35.20;;;;;;;;;;5034419;28;20175;-91
2022/10/18 04:29:03;;;;;;;85.20;35.73;;;;;;;;;;5046272;28;20192;-91
2022/10/18 04:31:29;;;;;;;57.53;33.30;;;;;;;;;;5032039;28;20211;-81
2022/10/18 04:33:55;;;;;;;60.70;33.73;;;;;;;;;;5064122;28;20244;-81
2022/10/18 04:36:21;;;;;;;60.00;33.93;;;;;;;;;;5047356;28;20223;-81
2022/10/18 04:38:47;;;;;;;55.50;32.97;;;;;;;;;;5028851;28;20242;-81
2022/10/18 04:41:13;;;;;;;55.60;33.10;;;;;;;;;;5028585;28;20275;-83
2022/10/18 04:43:39;;;;;;;64.60;33.30;;;;;;;;;;5062361;28;20210;-84
2022/10/18 04:46:05;;;;;;;60.30;33.03;;;;;;;;;;5027439;28;20184;-83
2022/10/18 04:48:31;;;;;;;52.33;32.73;;;;;;;;;;5028288;28;20176;-83
2022/10/18 04:50:57;;;;;;;60.27;33.43;;;;;;;;;;5045691;28;20191;-83
2022/10/18 04:53:23;;;;;;;54.40;33.37;;;;;;;;;;5026487;28;20278;-83
2022/10/18 04:55:50;;;;;;;54.17;32.27;;;;;;;;;;5029484;28;20349;-79
2022/10/18 04:58:16;;;;;;;60.17;33.87;;;;;;;;;;5025732;28;20188;-90
2022/10/18 05:00:42;;;;;;;56.37;32.47;;;;;;;;;;5040756;28;20180;-91
2022/10/18 05:03:08;;;;;;;57.40;32.80;;;;;;;;;;5049589;28;20186;-90
2022/10/18 05:05:35;;;;;;;59.80;32.60;;;;;;;;;;5046255;28;20217;-90
2022/10/18 05:08:01;;;;;;;58.83;32.67;;;;;;;;;;5051768;28;20194;-89
2022/10/18 05:10:27;;;;;;;63.17;33.73;;;;;;;;;;5042284;28;20199;-90
2022/10/18 05:12:53;;;;;;;54.63;32.50;;;;;;;;;;5046203;28;20167;-82
2022/10/18 05:15:19;;;;;;;52.30;30.63;;;;;;;;;;5047328;28;20228;-81
2022/10/18 05:17:45;;;;;;;58.87;31.50;;;;;;;;;;5029684;28;20175;-81
2022/10/18 05:20:11;;;;;;;57.17;32.47;;;;;;;;;;5029564;28;20248;-90
2022/10/18 05:22:37;;;;;;;57.13;30.50;;;;;;;;;;5048798;28;20179;-90
2022/10/18 05:25:03;;;;;;;56.90;30.87;;;;;;;;;;5029735;28;20182;-90
2022/10/18 05:27:29;;;;;;;58.03;31.90;;;;;;;;;;5027430;28;20191;-90
2022/10/18 05:29:55;;;;;;;57.43;33.50;;;;;;;;;;5042192;28;20256;-89
2022/10/18 05:32:21;;;;;;;55.53;32.13;;;;;;;;;;5031135;28;20266;-89
2022/10/18 05:34:47;;;;;;;54.90;32.50;;;;;;;;;;5030890;28;20184;-83
2022/10/18 05:37:13;;;;;;;63.07;33.03;;;;;;;;;;5048537;28;20203;-83
2022/10/18 05:39:39;;;;;;;64.10;33.03;;;;;;;;;;5043550;28;20236;-83
2022/10/18 05:42:05;;;;;;;59.00;33.37;;;;;;;;;;5024492;28;20180;-83
2022/10/18 05:44:32;;;;;;;59.57;32.63;;;;;;;;;;5046587;28;20210;-82
2022/10/18 05:46:58;;;;;;;65.47;32.83;;;;;;;;;;5062660;28;20231;-83
2022/10/18 05:49:24;;;;;;;66.00;32.73;;;;;;;;;;5037135;28;20206;-83
2022/10/18 05:51:50;;;;;;;59.17;31.67;;;;;;;;;;5023212;28;20192;-83
2022/10/18 05:54:16;;;;;;;67.20;32.47;;;;;;;;;;5047390;23;20289;-84
2022/10/18 05:56:42;;;;;;;59.67;31.80;;;;;;;;;;5020059;28;20216;-83
2022/10/18 05:59:10;;;;;;;58.97;31.20;;;;;;;;;;5020067;28;20266;-83
2022/10/18 06:01:40;;;;;;;56.80;30.53;;;;;;;;;;5036862;28;20176;-83
2022/10/18 06:04:07;;;;;;;63.00;30.23;;;;;;;;;;5035578;28;20184;-91
2022/10/18 06:06:33;;;;;;;57.70;30.10;;;;;;;;;;5037179;28;20183;-90
2022/10/18 06:09:00;;;;;;;96.27;31.50;;;;;;;;;;5033130;28;20188;-79
2022/10/18 06:11:26;;;;;;;72.63;25.07;;;;;;;;;;5029319;28;20278;-79
2022/10/18 06:13:52;;;;;;;94.03;26.10;;;;;;;;;;5036666;28;20404;-79
2022/10/18 06:16:20;;;;;;;70.07;25.27;;;;;;;;;;5015997;28;20242;-79
2022/10/18 06:18:56;;;;;;;60.83;23.30;;;;;;;;;;5032535;28;20203;-79
2022/10/18 06:21:23;;;;;;;78.63;22.43;;;;;;;;;;5015044;28;20260;-90
2022/10/18 06:23:49;;;;;;;70.10;23.50;;;;;;;;;;5034360;28;20192;-90
2022/10/18 06:26:16;;;;;;;96.97;24.10;;;;;;;;;;5052355;28;20215;-90
2022/10/18 06:28:42;;;;;;;84.80;23.63;;;;;;;;;;5035527;28;20188;-90
2022/10/18 06:31:08;;;;;;;50.67;20.90;;;;;;;;;;5035404;28;20191;-90
2022/10/18 06:33:35;;;;;;;74.40;21.97;;;;;;;;;;5019784;28;20263;-90
2022/10/18 06:36:06;;;;;;;54.30;19.03;;;;;;;;;;5038572;28;20238;-84
2022/10/18 06:38:32;;;;;;;46.43;18.83;;;;;;;;;;5042768;28;20184;-90
2022/10/18 06:40:58;;;;;;;49.10;19.87;;;;;;;;;;5054102;28;20282;-89
2022/10/18 06:43:25;;;;;;;51.67;19.80;;;;;;;;;;5037037;28;20229;-91
2022/10/18 06:45:51;;;;;;;33.30;19.00;;;;;;;;;;5048686;28;20191;-90
2022/10/18 06:48:18;;;;;;;34.60;19.23;;;;;;;;;;5053224;28;20183;-89
2022/10/18 06:50:51;;;;;;;31.83;18.33;;;;;;;;;;5048565;28;20198;-90
2022/10/18 06:53:17;;;;;;;32.27;18.03;;;;;;;;;;5020317;28;20273;-84
2022/10/18 06:55:43;;;;;;;41.43;19.27;;;;;;;;;;5054066;28;20285;-83
2022/10/18 06:58:09;;;;;;;19.70;13.80;;;;;;;;;;5036267;28;20423;-84
2022/10/18 07:00:35;;;;;;;47.25;24.50;;;;;;;;;;5033702;28;20432;-84
2022/10/18 07:03:01;;;;;;;37.60;20.50;;;;;;;;;;5019827;28;20176;-84
2022/10/18 07:05:27;;;;;;;42.57;20.10;;;;;;;;;;5030410;28;20189;-84
2022/10/18 07:07:53;;;;;;;34.60;19.00;;;;;;;;;;5030831;28;20181;-84
2022/10/18 07:10:19;;;;;;;31.10;18.47;;;;;;;;;;5047448;28;20188;-81
2022/10/18 07:12:45;;;;;;;39.73;19.07;;;;;;;;;;5035342;28;20274;-81
2022/10/18 07:15:11;;;;;;;34.40;18.93;;;;;;;;;;5050840;28;20227;-81
2022/10/18 07:17:37;;;;;;;27.67;19.13;;;;;;;;;;5018317;28;20208;-81
2022/10/18 07:20:03;;;;;;;25.93;17.93;;;;;;;;;;5034447;28;20238;-81
2022/10/18 07:22:30;;;;;;;25.17;17.27;;;;;;;;;;5052078;28;20211;-81
2022/10/18 07:24:55;;;;;;;25.67;17.73;;;;;;;;;;5035456;28;20195;-81
2022/10/18 07:27:22;;;;;;;25.33;17.13;;;;;;;;;;5038786;28;20273;-82
2022/10/18 07:29:48;;;;;;;24.93;16.93;;;;;;;;;;5039768;28;20242;-83
2022/10/18 07:32:14;;;;;;;23.57;15.73;;;;;;;;;;5056169;28;20184;-83
2022/10/18 07:34:40;;;;;;;25.13;16.53;;;;;;;;;;5026029;28;20232;-83
2022/10/18 07:37:06;;;;;;;22.03;15.80;;;;;;;;;;5021941;28;20248;-84
2022/10/18 07:39:32;;;;;;;25.13;15.70;;;;;;;;;;5038839;28;20274;-84
2022/10/18 07:41:58;;;;;;;22.60;14.67;;;;;;;;;;5039151;28;20190;-84
2022/10/18 07:44:24;;;;;;;20.10;13.87;;;;;;;;;;5039351;28;20200;-83
2022/10/18 07:46:50;;;;;;;22.90;13.60;;;;;;;;;;5036928;28;20188;-83
2022/10/18 07:49:16;;;;;;;21.00;13.80;;;;;;;;;;5038690;28;20190;-83
2022/10/18 07:51:43;;;;;;;21.70;13.40;;;;;;;;;;5056336;28;20184;-81
2022/10/18 07:54:09;;;;;;;25.07;11.97;;;;;;;;;;5034456;28;20220;-78
2022/10/18 07:56:35;;;;;;;20.33;10.70;;;;;;;;;;5039298;28;20216;-81
2022/10/18 07:59:01;;;;;;;18.40;11.03;;;;;;;;;;5026517;28;20191;-79
2022/10/18 08:01:27;;;;;;;16.80;10.73;;;;;;;;;;5022224;28;20259;-79
2022/10/18 08:03:53;;;;;;;16.10;10.90;;;;;;;;;;5022340;28;20176;-83
2022/10/18 08:06:20;;;;;;;17.67;9.73;;;;;;;;;;5032610;28;20231;-83
2022/10/18 08:08:46;;;;;;;16.70;10.13;;;;;;;;;;5055851;28;20266;-83
2022/10/18 08:11:17;;;;;;;14.03;9.20;;;;;;;;;;5055896;28;20192;-83
2022/10/18 08:13:43;;;;;;;15.53;9.23;;;;;;;;;;5037420;28;20188;-83
2022/10/18 08:16:10;;;;;;;15.03;8.33;;;;;;;;;;5022266;28;20223;-83
2022/10/18 08:18:37;;;;;;;15.07;7.07;;;;;;;;;;5034383;28;20272;-83
2022/10/18 08:21:04;;;;;;;13.63;7.20;;;;;;;;;;5050054;28;20230;-83
2022/10/18 08:23:30;;;;;;;10.20;6.07;;;;;;;;;;5036822;28;20273;-83
2022/10/18 08:25:56;;;;;;;10.10;5.40;;;;;;;;;;5018892;28;20220;-83
2022/10/18 08:28:22;;;;;;;9.13;5.20;;;;;;;;;;5007608;28;20268;-83
2022/10/18 08:30:48;;;;;;;10.90;5.10;;;;;;;;;;5034756;28;20299;-83
2022/10/18 08:33:14;;;;;;;11.87;5.17;;;;;;;;;;5054841;28;20191;-79
2022/10/18 08:35:40;;;;;;;13.30;4.50;;;;;;;;;;5020931;28;20184;-79
2022/10/18 08:38:10;;;;;;;11.93;4.03;;;;;;;;;;5019838;28;20191;-80
2022/10/18 08:40:41;;;;;;;10.23;4.87;;;;;;;;;;5019059;28;20214;-79
2022/10/18 08:43:07;;;;;;;10.97;4.07;;;;;;;;;;5031865;28;20179;-80
2022/10/18 08:45:40;;;;;;;12.80;3.90;;;;;;;;;;5034507;28;20177;-83
2022/10/18 08:48:07;;;;;;;9.20;3.47;;;;;;;;;;5038130;28;20184;-83
2022/10/18 08:50:35;;;;;;;8.83;3.80;;;;;;;;;;5040285;28;20260;-84
2022/10/18 08:53:01;;;;;;;10.17;3.37;;;;;;;;;;5037639;28;20223;-83
2022/10/18 08:55:35;;;;;;;12.40;3.37;;;;;;;;;;5037884;28;20182;-84
2022/10/18 08:58:01;;;;;;;12.47;3.47;;;;;;;;;;5038191;28;20203;-84
2022/10/18 09:00:33;;;;;;;10.20;3.33;;;;;;;;;;5055519;28;20187;-84
2022/10/18 09:03:17;;;;;;;7.13;2.83;;;;;;;;;;5037646;28;20242;-84
2022/10/18 09:05:55;;;;;;;10.57;2.97;;;;;;;;;;5036824;28;20172;-84
2022/10/18 09:08:27;;;;;;;7.00;2.50;;;;;;;;;;5025913;28;20188;-84
2022/10/18 09:10:53;;;;;;;9.10;2.85;;;;;;;;;;5046460;28;20184;-84
2022/10/18 09:13:38;;;;;;;7.80;2.85;;;;;;;;;;5054959;28;20263;-84
2022/10/18 09:16:06;;;;;;;6.35;2.70;;;;;;;;;;5036386;28;20222;-84
2022/10/18 09:18:38;;;;;;;8.15;2.70;;;;;;;;;;5035401;28;20172;-84
2022/10/18 09:21:11;;;;;;;9.23;2.70;;;;;;;;;;5032195;28;20180;-83
2022/10/18 09:23:39;;;;;;;8.23;2.67;;;;;;;;;;5053885;28;20184;-80
2022/10/18 09:26:24;;;;;;;7.18;2.47;;;;;;;;;;5035732;28;20176;-80
2022/10/18 09:28:50;;;;;;;7.57;2.50;;;;;;;;;;5036435;28;20215;-80
2022/10/18 09:31:24;;;;;;;6.40;2.50;;;;;;;;;;5034502;28;20251;-80
2022/10/18 09:33:54;;;;;;;8.80;2.40;;;;;;;;;;5048761;28;20187;-81
2022/10/18 09:36:21;;;;;;;10.93;2.65;;;;;;;;;;5036747;28;20219;-80
2022/10/18 09:38:55;;;;;;;7.32;2.80;;;;;;;;;;5053309;28;20176;-80
2022/10/18 09:41:21;;;;;;;7.90;2.17;;;;;;;;;;5051589;28;20261;-80
2022/10/18 09:43:50;;;;;;;7.82;2.45;;;;;;;;;;5036742;28;20236;-80
2022/10/18 09:46:18;;;;;;;5.50;2.22;;;;;;;;;;5036168;28;20207;-80
2022/10/18 09:48:54;;;;;;;6.78;2.28;;;;;;;;;;5050064;28;20187;-80
2022/10/18 09:51:21;;;;;;;7.03;2.20;;;;;;;;;;5036122;28;20186;-80
2022/10/18 09:54:08;;;;;;;7.75;2.40;;;;;;;;;;5052771;28;20227;-81
2022/10/18 09:56:40;;;;;;;7.22;2.20;;;;;;;;;;5049027;28;20214;-82
2022/10/18 09:59:18;;;;;;;8.13;2.20;;;;;;;;;;5036155;28;20172;-83
2022/10/18 10:01:44;;;;;;;4.93;1.85;;;;;;;;;;5036100;28;20261;-83
2022/10/18 10:04:10;;;;;;;8.65;2.00;;;;;;;;;;5016589;28;20267;-83
2022/10/18 10:06:37;;;;;;;6.30;1.92;;;;;;;;;;5011628;28;20289;-82
2022/10/18 10:09:13;;;;;;;7.78;1.95;;;;;;;;;;5035001;28;20246;-83
2022/10/18 10:11:45;;;;;;;4.18;1.70;;;;;;;;;;5035609;28;20184;-82
2022/10/18 10:14:21;;;;;;;10.20;1.83;;;;;;;;;;5036402;28;20182;-84
2022/10/18 10:16:49;;;;;;;5.78;1.73;;;;;;;;;;5053458;28;20265;-84
2022/10/18 10:19:30;;;;;;;9.60;2.10;;;;;;;;;;5054205;28;20255;-84
2022/10/18 10:22:01;;;;;;;6.60;1.63;;;;;;;;;;5052438;28;20176;-81
2022/10/18 10:24:36;;;;;;;5.43;1.80;;;;;;;;;;5035652;28;20184;-81
2022/10/18 10:27:06;;;;;;;7.45;2.28;;;;;;;;;;5034852;28;20195;-80
2022/10/18 10:29:45;;;;;;;6.03;1.80;;;;;;;;;;5046044;28;20255;-83
2022/10/18 10:32:16;;;;;;;6.22;2.30;;;;;;;;;;5036640;28;20226;-83
2022/10/18 10:34:42;;;;;;;7.32;1.80;;;;;;;;;;5036222;28;20188;-83
2022/10/18 10:37:23;;;;;;;4.65;1.67;;;;;;;;;;5036192;28;20204;-83
2022/10/18 10:40:09;;;;;;;5.88;1.80;;;;;;;;;;5048662;28;20175;-83
2022/10/18 10:42:37;;;;;;;7.80;2.25;;;;;;;;;;5035741;28;20167;-83
2022/10/18 10:45:03;;;;;;;4.60;1.80;;;;;;;;;;5040717;28;20200;-84
2022/10/18 10:47:31;;;;;;;7.70;2.10;;;;;;;;;;5035135;28;20195;-81
2022/10/18 10:49:58;;;;;;;6.07;1.80;;;;;;;;;;5035917;28;20175;-82
2022/10/18 10:52:28;;;;;;;5.60;1.90;;;;;;;;;;5035296;28;20270;-81
2022/10/18 10:54:56;;;;;;;6.93;2.13;;;;;;;;;;5035517;28;20223;-81
2022/10/18 10:57:24;;;;;;;7.07;2.00;;;;;;;;;;5019967;28;20299;-81
2022/10/18 10:59:55;;;;;;;6.88;1.60;;;;;;;;;;5037280;28;20271;-81
2022/10/18 11:02:21;;;;;;;6.30;1.95;;;;;;;;;;5054097;28;20246;-84
2022/10/18 11:04:48;;;;;;;6.60;2.10;;;;;;;;;;5035160;28;20230;-84
2022/10/18 11:07:34;;;;;;;7.03;1.88;;;;;;;;;;5032002;28;20177;-85
2022/10/18 11:10:06;;;;;;;5.40;2.00;;;;;;;;;;5016839;28;20263;-92
2022/10/18 11:12:40;;;;;;;5.50;1.77;;;;;;;;;;5026271;28;20180;-86
2022/10/18 11:15:10;;;;;;;6.57;1.75;;;;;;;;;;5033838;28;20180;-82
2022/10/18 11:17:39;;;;;;;5.68;1.83;;;;;;;;;;5052129;28;20207;-85
2022/10/18 11:20:15;;;;;;;6.05;2.00;;;;;;;;;;5022211;28;20173;-91
2022/10/18 11:22:44;;;;;;;9.07;2.15;;;;;;;;;;5016324;28;20219;-91
2022/10/18 11:25:13;;;;;;;8.25;2.00;;;;;;;;;;5017039;28;20176;-92
2022/10/18 11:28:08;;;;;;;5.43;1.98;;;;;;;;;;5019078;28;20180;-84
2022/10/18 11:30:43;;;;;;;5.90;1.95;;;;;;;;;;5052002;28;20188;-82
2022/10/18 11:33:18;;;;;;;7.00;1.80;;;;;;;;;;5052127;28;20175;-82
2022/10/18 11:35:52;;;;;;;5.70;1.90;;;;;;;;;;5019484;28;20198;-85
2022/10/18 11:38:21;;;;;;;7.60;1.95;;;;;;;;;;5053284;28;20171;-84
2022/10/18 11:40:56;;;;;;;7.90;2.00;;;;;;;;;;5052278;28;20407;-81
2022/10/18 11:43:25;;;;;;;6.57;1.83;;;;;;;;;;5035567;28;20183;-81
2022/10/18 11:45:51;;;;;;;8.02;2.03;;;;;;;;;;5035464;28;20172;-85
2022/10/18 11:48:20;;;;;;;4.97;1.58;;;;;;;;;;5053332;28;20172;-85
2022/10/18 11:50:52;;;;;;;7.53;2.05;;;;;;;;;;5053168;28;20175;-85
2022/10/18 11:53:18;;;;;;;10.68;1.83;;;;;;;;;;5051864;28;20224;-81
2022/10/18 11:56:16;;;;;;;7.78;2.10;;;;;;;;;;5019020;28;20247;-81
2022/10/18 11:58:49;;;;;;;7.88;1.88;;;;;;;;;;5010431;28;20256;-91
2022/10/18 12:01:28;;;;;;;5.40;1.77;;;;;;;;;;5033425;28;20227;-85
2022/10/18 12:03:59;;;;;;;5.18;1.73;;;;;;;;;;5020554;28;20204;-85
2022/10/18 12:06:27;;;;;;;5.47;1.60;;;;;;;;;;5035382;28;20252;-85
2022/10/18 12:08:56;;;;;;;6.77;1.90;;;;;;;;;;5051292;28;20436;-86
2022/10/18 12:11:25;;;;;;;7.50;2.15;;;;;;;;;;5032966;28;20426;-85
2022/10/18 12:13:57;;;;;;;6.57;1.92;;;;;;;;;;5032754;28;20188;-81
2022/10/18 12:16:24;;;;;;;7.18;2.22;;;;;;;;;;5035407;28;20204;-81
2022/10/18 12:18:58;;;;;;;7.10;1.70;;;;;;;;;;5045933;28;20179;-81
2022/10/18 12:21:25;;;;;;;8.68;2.15;;;;;;;;;;5049224;28;20278;-81
2022/10/18 12:23:57;;;;;;;8.13;1.83;;;;;;;;;;5038883;28;20176;-83
2022/10/18 12:26:24;;;;;;;7.85;2.30;;;;;;;;;;5057417;28;20168;-91
2022/10/18 12:28:53;;;;;;;9.77;2.40;;;;;;;;;;5059238;28;20175;-91
2022/10/18 12:31:25;;;;;;;9.52;1.90;;;;;;;;;;5043596;28;20195;-91
2022/10/18 12:33:55;;;;;;;8.27;2.20;;;;;;;;;;5041851;28;20268;-84
2022/10/18 12:36:21;;;;;;;9.57;2.13;;;;;;;;;;5054553;28;20207;-85
2022/10/18 12:38:48;;;;;;;5.60;1.80;;;;;;;;;;5038328;28;20247;-85
2022/10/18 12:41:28;;;;;;;4.75;2.00;;;;;;;;;;5036065;28;20242;-84
2022/10/18 12:44:02;;;;;;;6.23;1.70;;;;;;;;;;5040067;28;20172;-84
2022/10/18 12:46:45;;;;;;;6.80;2.03;;;;;;;;;;5036266;28;20190;-84
2022/10/18 12:49:12;;;;;;;7.90;2.03;;;;;;;;;;5055628;28;20176;-84
2022/10/18 12:51:58;;;;;;;8.53;2.07;;;;;;;;;;5054547;28;20183;-85
2022/10/18 12:54:31;;;;;;;8.70;1.90;;;;;;;;;;5055124;28;20278;-84
2022/10/18 12:56:58;;;;;;;5.10;1.60;;;;;;;;;;5035084;28;20216;-84
2022/10/18 12:59:27;;;;;;;9.20;2.20;;;;;;;;;;5023049;28;20188;-83
2022/10/18 13:01:53;;;;;;;8.10;2.10;;;;;;;;;;5033750;28;20417;-91
2022/10/18 13:04:31;;;;;;;6.93;1.63;;;;;;;;;;5032920;28;20171;-91
2022/10/18 13:07:01;;;;;;;7.20;1.80;;;;;;;;;;5055712;28;20195;-92
2022/10/18 13:09:29;;;;;;;6.33;1.80;;;;;;;;;;5038764;28;20186;-91
2022/10/18 13:12:01;;;;;;;6.97;1.80;;;;;;;;;;5056179;28;20206;-90
2022/10/18 13:14:46;;;;;;;5.67;1.60;;;;;;;;;;5038822;28;20266;-92
2022/10/18 13:17:18;;;;;;;10.17;1.90;;;;;;;;;;5034577;28;20214;-80
2022/10/18 13:19:50;;;;;;;8.40;1.70;;;;;;;;;;5055442;28;20172;-80
2022/10/18 13:22:35;;;;;;;4.60;1.37;;;;;;;;;;5050740;28;20200;-81
2022/10/18 13:25:02;;;;;;;4.83;1.47;;;;;;;;;;5055436;28;20182;-80
2022/10/18 13:27:38;;;;;;;5.00;1.40;;;;;;;;;;5037400;28;20283;-81
2022/10/18 13:30:23;;;;;;;4.00;1.30;;;;;;;;;;5037491;28;20233;-81
2022/10/18 13:32:52;;;;;;;6.63;1.60;;;;;;;;;;5053422;28;20186;-80
2022/10/18 13:35:36;;;;;;;7.00;1.37;;;;;;;;;;5054536;28;20172;-81
2022/10/18 13:38:22;;;;;;;6.73;1.80;;;;;;;;;;5037302;28;20176;-80
2022/10/18 13:40:59;;;;;;;4.88;1.63;;;;;;;;;;5042556;28;20506;-80
2022/10/18 13:43:44;;;;;;;4.30;1.33;;;;;;;;;;5033950;28;20436;-80
2022/10/18 13:46:10;;;;;;;4.13;1.40;;;;;;;;;;5037258;28;20223;-80
2022/10/18 13:48:36;;;;;;;5.47;1.43;;;;;;;;;;5035933;28;20200;-80
2022/10/18 13:51:21;;;;;;;5.67;1.90;;;;;;;;;;5033003;28;20414;-82
2022/10/18 13:54:05;;;;;;;4.20;1.70;;;;;;;;;;5035625;28;20439;-82
2022/10/18 13:56:37;;;;;;;6.60;1.60;;;;;;;;;;5035471;28;20435;-82
2022/10/18 13:59:16;;;;;;;7.03;1.60;;;;;;;;;;5031569;28;20450;-82
2022/10/18 14:02:00;;;;;;;5.97;1.60;;;;;;;;;;5037438;28;20412;-82
2022/10/18 14:04:45;;;;;;;4.30;1.60;;;;;;;;;;5035716;28;20407;-82
2022/10/18 14:07:12;;;;;;;3.55;1.30;;;;;;;;;;5048836;28;20458;-80
2022/10/18 14:09:47;;;;;;;5.78;1.60;;;;;;;;;;5018715;28;20428;-80
2022/10/18 14:12:36;;;;;;;4.93;1.52;;;;;;;;;;5035641;28;20408;-80
2022/10/18 14:15:08;;;;;;;5.38;1.55;;;;;;;;;;5027228;28;20420;-79
2022/10/18 14:17:43;;;;;;;6.97;1.75;;;;;;;;;;5032576;28;20517;-80
2022/10/18 14:20:16;;;;;;;4.32;1.52;;;;;;;;;;5016016;28;20524;-80
2022/10/18 14:22:44;;;;;;;4.63;1.53;;;;;;;;;;5045659;28;20408;-85
2022/10/18 14:25:21;;;;;;;6.53;1.57;;;;;;;;;;5036129;28;20167;-86
2022/10/18 14:27:47;;;;;;;4.07;1.40;;;;;;;;;;5034935;28;20187;-83
2022/10/18 14:30:19;;;;;;;5.40;1.40;;;;;;;;;;5019023;28;20179;-83
2022/10/18 14:32:49;;;;;;;3.70;1.50;;;;;;;;;;5053343;28;20176;-83
2022/10/18 14:35:16;;;;;;;4.65;1.40;;;;;;;;;;5054365;28;20415;-84
2022/10/18 14:37:42;;;;;;;4.53;1.53;;;;;;;;;;5035392;28;20265;-83
2022/10/18 14:40:28;;;;;;;5.82;1.70;;;;;;;;;;5019455;28;20423;-83